sensor_id;sensor_type;location;lat;lon;timestamp;P1;durP1;ratioP1;P2;durP2;ratioP2
78781;SDS011;68126;55.748;48.742;2023-06-04T00:05:21;7.75;;;4.15;;
78781;SDS011;68126;55.748;48.742;2023-06-04T00:10:47;6.10;;;3.22;;
78781;SDS011;68126;55.748;48.742;2023-06-04T00:16:12;5.28;;;3.80;;
78781;SDS011;68126;55.748;48.742;2023-06-04T00:27:09;5.47;;;4.15;;
78781;SDS011;68126;55.748;48.742;2023-06-04T00:32:34;6.25;;;3.33;;
78781;SDS011;68126;55.748;48.742;2023-06-04T00:38:00;8.33;;;3.15;;
78781;SDS011;68126;55.748;48.742;2023-06-04T00:43:25;9.33;;;4.37;;
78781;SDS011;68126;55.748;48.742;2023-06-04T00:54:35;5.53;;;3.25;;
78781;SDS011;68126;55.748;48.742;2023-06-04T01:00:00;6.55;;;4.45;;
78781;SDS011;68126;55.748;48.742;2023-06-04T01:11:12;6.37;;;3.37;;
78781;SDS011;68126;55.748;48.742;2023-06-04T01:22:04;6.55;;;3.55;;
78781;SDS011;68126;55.748;48.742;2023-06-04T01:27:30;6.08;;;3.70;;
78781;SDS011;68126;55.748;48.742;2023-06-04T01:32:57;7.55;;;3.30;;
78781;SDS011;68126;55.748;48.742;2023-06-04T01:38:22;7.67;;;3.98;;
78781;SDS011;68126;55.748;48.742;2023-06-04T01:43:49;7.25;;;3.37;;
78781;SDS011;68126;55.748;48.742;2023-06-04T01:49:14;6.67;;;3.35;;
78781;SDS011;68126;55.748;48.742;2023-06-04T01:54:38;6.83;;;3.80;;
78781;SDS011;68126;55.748;48.742;2023-06-04T02:00:03;8.60;;;4.08;;
78781;SDS011;68126;55.748;48.742;2023-06-04T02:05:30;6.20;;;3.27;;
78781;SDS011;68126;55.748;48.742;2023-06-04T02:10:55;5.50;;;3.20;;
78781;SDS011;68126;55.748;48.742;2023-06-04T02:16:20;5.40;;;2.80;;
78781;SDS011;68126;55.748;48.742;2023-06-04T02:21:45;5.15;;;2.62;;
78781;SDS011;68126;55.748;48.742;2023-06-04T02:27:10;6.22;;;3.02;;
78781;SDS011;68126;55.748;48.742;2023-06-04T02:32:34;5.45;;;3.50;;
78781;SDS011;68126;55.748;48.742;2023-06-04T02:37:59;6.45;;;3.12;;
78781;SDS011;68126;55.748;48.742;2023-06-04T02:43:24;7.42;;;3.42;;
78781;SDS011;68126;55.748;48.742;2023-06-04T02:48:49;7.80;;;3.67;;
78781;SDS011;68126;55.748;48.742;2023-06-04T02:54:15;7.15;;;3.37;;
78781;SDS011;68126;55.748;48.742;2023-06-04T02:59:40;5.85;;;4.67;;
78781;SDS011;68126;55.748;48.742;2023-06-04T03:05:05;7.30;;;3.40;;
78781;SDS011;68126;55.748;48.742;2023-06-04T03:10:31;6.83;;;4.05;;
78781;SDS011;68126;55.748;48.742;2023-06-04T03:15:55;9.45;;;4.22;;
78781;SDS011;68126;55.748;48.742;2023-06-04T03:21:22;5.95;;;4.12;;
78781;SDS011;68126;55.748;48.742;2023-06-04T03:26:47;9.25;;;4.33;;
78781;SDS011;68126;55.748;48.742;2023-06-04T03:32:12;10.68;;;4.33;;
78781;SDS011;68126;55.748;48.742;2023-06-04T03:37:38;6.28;;;4.45;;
78781;SDS011;68126;55.748;48.742;2023-06-04T03:43:02;6.50;;;3.75;;
78781;SDS011;68126;55.748;48.742;2023-06-04T03:48:27;7.00;;;4.12;;
78781;SDS011;68126;55.748;48.742;2023-06-04T03:53:51;5.92;;;2.98;;
78781;SDS011;68126;55.748;48.742;2023-06-04T03:59:17;4.85;;;2.83;;
78781;SDS011;68126;55.748;48.742;2023-06-04T04:04:42;7.60;;;3.62;;
78781;SDS011;68126;55.748;48.742;2023-06-04T04:10:07;6.42;;;3.10;;
78781;SDS011;68126;55.748;48.742;2023-06-04T04:15:32;6.90;;;3.10;;
78781;SDS011;68126;55.748;48.742;2023-06-04T04:20:57;7.15;;;4.75;;
78781;SDS011;68126;55.748;48.742;2023-06-04T04:26:23;5.60;;;3.30;;
78781;SDS011;68126;55.748;48.742;2023-06-04T04:32:24;6.72;;;3.70;;
78781;SDS011;68126;55.748;48.742;2023-06-04T04:37:17;11.12;;;4.33;;
78781;SDS011;68126;55.748;48.742;2023-06-04T04:42:44;7.12;;;5.42;;
78781;SDS011;68126;55.748;48.742;2023-06-04T04:48:08;5.75;;;4.08;;
78781;SDS011;68126;55.748;48.742;2023-06-04T04:53:33;8.25;;;4.10;;
78781;SDS011;68126;55.748;48.742;2023-06-04T04:59:00;5.85;;;3.52;;
78781;SDS011;68126;55.748;48.742;2023-06-04T05:04:25;5.33;;;3.35;;
78781;SDS011;68126;55.748;48.742;2023-06-04T05:09:49;6.83;;;3.62;;
78781;SDS011;68126;55.748;48.742;2023-06-04T05:15:14;5.33;;;3.22;;
78781;SDS011;68126;55.748;48.742;2023-06-04T05:20:40;5.90;;;2.87;;
78781;SDS011;68126;55.748;48.742;2023-06-04T05:26:05;3.08;;;2.20;;
78781;SDS011;68126;55.748;48.742;2023-06-04T05:31:30;4.87;;;2.42;;
78781;SDS011;68126;55.748;48.742;2023-06-04T05:36:56;6.22;;;2.83;;
78781;SDS011;68126;55.748;48.742;2023-06-04T05:42:21;5.53;;;2.75;;
78781;SDS011;68126;55.748;48.742;2023-06-04T05:47:45;4.67;;;3.42;;
78781;SDS011;68126;55.748;48.742;2023-06-04T05:53:10;5.30;;;3.72;;
78781;SDS011;68126;55.748;48.742;2023-06-04T05:58:35;6.15;;;3.45;;
78781;SDS011;68126;55.748;48.742;2023-06-04T06:04:00;5.15;;;3.55;;
78781;SDS011;68126;55.748;48.742;2023-06-04T06:09:26;4.83;;;3.83;;
78781;SDS011;68126;55.748;48.742;2023-06-04T06:20:19;5.00;;;3.17;;
78781;SDS011;68126;55.748;48.742;2023-06-04T06:25:44;4.90;;;3.98;;
78781;SDS011;68126;55.748;48.742;2023-06-04T06:31:11;5.72;;;3.83;;
78781;SDS011;68126;55.748;48.742;2023-06-04T06:36:37;4.45;;;3.33;;
78781;SDS011;68126;55.748;48.742;2023-06-04T06:42:02;6.25;;;4.65;;
78781;SDS011;68126;55.748;48.742;2023-06-04T06:47:50;4.72;;;3.47;;
78781;SDS011;68126;55.748;48.742;2023-06-04T06:53:17;6.20;;;3.98;;
78781;SDS011;68126;55.748;48.742;2023-06-04T06:58:46;4.17;;;2.92;;
78781;SDS011;68126;55.748;48.742;2023-06-04T07:04:16;5.70;;;2.12;;
78781;SDS011;68126;55.748;48.742;2023-06-04T07:09:41;2.58;;;1.72;;
78781;SDS011;68126;55.748;48.742;2023-06-04T07:15:25;2.87;;;0.90;;
78781;SDS011;68126;55.748;48.742;2023-06-04T07:20:50;2.75;;;0.90;;
78781;SDS011;68126;55.748;48.742;2023-06-04T07:37:27;1.32;;;0.57;;
78781;SDS011;68126;55.748;48.742;2023-06-04T07:42:52;1.20;;;0.78;;
78781;SDS011;68126;55.748;48.742;2023-06-04T07:48:17;2.40;;;1.52;;
78781;SDS011;68126;55.748;48.742;2023-06-04T07:53:42;3.05;;;0.80;;
78781;SDS011;68126;55.748;48.742;2023-06-04T07:59:43;1.80;;;1.15;;
78781;SDS011;68126;55.748;48.742;2023-06-04T08:04:33;2.30;;;1.22;;
78781;SDS011;68126;55.748;48.742;2023-06-04T08:09:58;2.15;;;1.85;;
78781;SDS011;68126;55.748;48.742;2023-06-04T08:15:23;3.08;;;1.22;;
78781;SDS011;68126;55.748;48.742;2023-06-04T08:20:49;3.72;;;0.95;;
78781;SDS011;68126;55.748;48.742;2023-06-04T08:26:18;1.82;;;0.80;;
78781;SDS011;68126;55.748;48.742;2023-06-04T08:31:45;1.55;;;0.60;;
78781;SDS011;68126;55.748;48.742;2023-06-04T08:37:43;2.87;;;0.90;;
78781;SDS011;68126;55.748;48.742;2023-06-04T08:43:19;1.25;;;0.80;;
78781;SDS011;68126;55.748;48.742;2023-06-04T08:54:14;1.77;;;0.82;;
78781;SDS011;68126;55.748;48.742;2023-06-04T08:59:39;2.47;;;0.60;;
78781;SDS011;68126;55.748;48.742;2023-06-04T09:05:24;1.87;;;1.62;;
78781;SDS011;68126;55.748;48.742;2023-06-04T09:10:50;2.90;;;0.95;;
78781;SDS011;68126;55.748;48.742;2023-06-04T09:16:15;0.88;;;0.42;;
78781;SDS011;68126;55.748;48.742;2023-06-04T09:32:50;1.00;;;0.95;;
78781;SDS011;68126;55.748;48.742;2023-06-04T09:49:10;0.80;;;0.60;;
78781;SDS011;68126;55.748;48.742;2023-06-04T09:54:35;0.70;;;0.30;;
78781;SDS011;68126;55.748;48.742;2023-06-04T10:00:01;0.88;;;0.68;;
78781;SDS011;68126;55.748;48.742;2023-06-04T10:05:53;1.05;;;0.72;;
78781;SDS011;68126;55.748;48.742;2023-06-04T10:11:22;1.12;;;0.80;;
78781;SDS011;68126;55.748;48.742;2023-06-04T10:16:48;1.52;;;0.80;;
78781;SDS011;68126;55.748;48.742;2023-06-04T10:22:14;0.65;;;0.42;;
78781;SDS011;68126;55.748;48.742;2023-06-04T10:27:38;1.20;;;0.78;;
78781;SDS011;68126;55.748;48.742;2023-06-04T10:33:03;1.75;;;1.07;;
78781;SDS011;68126;55.748;48.742;2023-06-04T10:38:28;1.02;;;0.88;;
78781;SDS011;68126;55.748;48.742;2023-06-04T10:44:00;1.10;;;0.53;;
78781;SDS011;68126;55.748;48.742;2023-06-04T10:55:06;1.72;;;0.60;;
78781;SDS011;68126;55.748;48.742;2023-06-04T11:06:16;2.45;;;0.50;;
78781;SDS011;68126;55.748;48.742;2023-06-04T11:11:43;3.08;;;0.72;;
78781;SDS011;68126;55.748;48.742;2023-06-04T11:22:53;1.80;;;1.12;;
78781;SDS011;68126;55.748;48.742;2023-06-04T11:28:21;1.60;;;0.93;;
78781;SDS011;68126;55.748;48.742;2023-06-04T11:33:48;1.22;;;1.10;;
78781;SDS011;68126;55.748;48.742;2023-06-04T11:39:13;0.78;;;0.55;;
78781;SDS011;68126;55.748;48.742;2023-06-04T11:44:38;2.17;;;0.78;;
78781;SDS011;68126;55.748;48.742;2023-06-04T11:50:05;0.93;;;0.45;;
78781;SDS011;68126;55.748;48.742;2023-06-04T12:01:41;1.25;;;1.10;;
78781;SDS011;68126;55.748;48.742;2023-06-04T12:07:06;2.58;;;0.33;;
78781;SDS011;68126;55.748;48.742;2023-06-04T12:18:55;1.92;;;0.47;;
78781;SDS011;68126;55.748;48.742;2023-06-04T12:23:46;1.77;;;0.33;;
78781;SDS011;68126;55.748;48.742;2023-06-04T12:29:11;0.90;;;0.30;;
78781;SDS011;68126;55.748;48.742;2023-06-04T12:34:37;1.45;;;0.57;;
78781;SDS011;68126;55.748;48.742;2023-06-04T12:40:02;2.22;;;0.42;;
78781;SDS011;68126;55.748;48.742;2023-06-04T12:45:28;0.80;;;0.23;;
78781;SDS011;68126;55.748;48.742;2023-06-04T12:50:53;1.07;;;0.30;;
78781;SDS011;68126;55.748;48.742;2023-06-04T12:56:17;2.40;;;0.62;;
78781;SDS011;68126;55.748;48.742;2023-06-04T13:01:42;3.60;;;0.10;;
78781;SDS011;68126;55.748;48.742;2023-06-04T13:07:07;1.12;;;0.20;;
78781;SDS011;68126;55.748;48.742;2023-06-04T13:12:32;2.58;;;0.42;;
78781;SDS011;68126;55.748;48.742;2023-06-04T13:17:57;3.10;;;0.30;;
78781;SDS011;68126;55.748;48.742;2023-06-04T13:23:22;1.50;;;0.35;;
78781;SDS011;68126;55.748;48.742;2023-06-04T13:28:47;4.67;;;0.70;;
78781;SDS011;68126;55.748;48.742;2023-06-04T13:39:35;3.45;;;0.60;;
78781;SDS011;68126;55.748;48.742;2023-06-04T13:45:00;2.25;;;0.88;;
78781;SDS011;68126;55.748;48.742;2023-06-04T13:50:27;1.75;;;0.28;;
78781;SDS011;68126;55.748;48.742;2023-06-04T14:01:20;8.58;;;1.02;;
78781;SDS011;68126;55.748;48.742;2023-06-04T14:06:45;3.30;;;0.60;;
78781;SDS011;68126;55.748;48.742;2023-06-04T14:12:09;1.30;;;0.50;;
78781;SDS011;68126;55.748;48.742;2023-06-04T14:17:35;1.25;;;0.60;;
78781;SDS011;68126;55.748;48.742;2023-06-04T14:23:00;1.82;;;0.60;;
78781;SDS011;68126;55.748;48.742;2023-06-04T14:28:25;2.90;;;1.07;;
78781;SDS011;68126;55.748;48.742;2023-06-04T14:33:49;1.72;;;0.72;;
78781;SDS011;68126;55.748;48.742;2023-06-04T14:39:14;1.07;;;0.42;;
78781;SDS011;68126;55.748;48.742;2023-06-04T14:50:23;1.95;;;0.30;;
78781;SDS011;68126;55.748;48.742;2023-06-04T14:55:48;2.30;;;0.30;;
78781;SDS011;68126;55.748;48.742;2023-06-04T15:01:15;2.22;;;0.57;;
78781;SDS011;68126;55.748;48.742;2023-06-04T15:06:44;3.85;;;0.42;;
78781;SDS011;68126;55.748;48.742;2023-06-04T15:12:08;0.82;;;0.30;;
78781;SDS011;68126;55.748;48.742;2023-06-04T15:17:34;3.47;;;0.50;;
78781;SDS011;68126;55.748;48.742;2023-06-04T15:22:59;3.17;;;0.40;;
78781;SDS011;68126;55.748;48.742;2023-06-04T15:28:24;1.32;;;0.55;;
78781;SDS011;68126;55.748;48.742;2023-06-04T15:33:48;1.25;;;0.33;;
78781;SDS011;68126;55.748;48.742;2023-06-04T15:44:39;3.00;;;1.02;;
78781;SDS011;68126;55.748;48.742;2023-06-04T15:50:06;3.65;;;1.00;;
78781;SDS011;68126;55.748;48.742;2023-06-04T15:55:32;0.98;;;0.33;;
78781;SDS011;68126;55.748;48.742;2023-06-04T16:01:32;2.67;;;1.05;;
78781;SDS011;68126;55.748;48.742;2023-06-04T16:06:23;1.50;;;1.32;;
78781;SDS011;68126;55.748;48.742;2023-06-04T16:11:48;2.12;;;0.88;;
78781;SDS011;68126;55.748;48.742;2023-06-04T16:17:13;2.52;;;1.55;;
78781;SDS011;68126;55.748;48.742;2023-06-04T16:22:38;2.75;;;0.40;;
78781;SDS011;68126;55.748;48.742;2023-06-04T16:33:31;1.70;;;0.55;;
78781;SDS011;68126;55.748;48.742;2023-06-04T16:38:56;1.15;;;0.85;;
78781;SDS011;68126;55.748;48.742;2023-06-04T16:44:20;2.30;;;1.00;;
78781;SDS011;68126;55.748;48.742;2023-06-04T16:49:45;2.90;;;1.77;;
78781;SDS011;68126;55.748;48.742;2023-06-04T16:55:10;2.75;;;2.42;;
78781;SDS011;68126;55.748;48.742;2023-06-04T17:00:35;4.17;;;0.75;;
78781;SDS011;68126;55.748;48.742;2023-06-04T17:06:00;3.60;;;0.88;;
78781;SDS011;68126;55.748;48.742;2023-06-04T17:11:24;1.80;;;0.80;;
78781;SDS011;68126;55.748;48.742;2023-06-04T17:16:49;5.67;;;3.08;;
78781;SDS011;68126;55.748;48.742;2023-06-04T17:22:14;2.95;;;1.70;;
78781;SDS011;68126;55.748;48.742;2023-06-04T17:27:38;2.55;;;1.42;;
78781;SDS011;68126;55.748;48.742;2023-06-04T17:33:03;2.77;;;0.72;;
78781;SDS011;68126;55.748;48.742;2023-06-04T17:38:27;2.52;;;0.72;;
78781;SDS011;68126;55.748;48.742;2023-06-04T17:43:52;2.55;;;0.93;;
78781;SDS011;68126;55.748;48.742;2023-06-04T17:49:17;8.03;;;1.55;;
78781;SDS011;68126;55.748;48.742;2023-06-04T17:54:44;1.72;;;1.02;;
78781;SDS011;68126;55.748;48.742;2023-06-04T18:00:10;4.10;;;0.80;;
78781;SDS011;68126;55.748;48.742;2023-06-04T18:05:37;2.47;;;2.02;;
78781;SDS011;68126;55.748;48.742;2023-06-04T18:11:01;3.22;;;0.93;;
78781;SDS011;68126;55.748;48.742;2023-06-04T18:16:26;3.92;;;1.57;;
78781;SDS011;68126;55.748;48.742;2023-06-04T18:21:51;4.00;;;1.07;;
78781;SDS011;68126;55.748;48.742;2023-06-04T18:27:16;2.00;;;0.90;;
78781;SDS011;68126;55.748;48.742;2023-06-04T18:32:41;3.85;;;2.17;;
78781;SDS011;68126;55.748;48.742;2023-06-04T18:38:06;1.85;;;1.20;;
78781;SDS011;68126;55.748;48.742;2023-06-04T18:43:30;1.80;;;1.22;;
78781;SDS011;68126;55.748;48.742;2023-06-04T18:48:57;2.83;;;2.52;;
78781;SDS011;68126;55.748;48.742;2023-06-04T18:54:23;1.65;;;0.55;;
78781;SDS011;68126;55.748;48.742;2023-06-04T18:59:48;2.62;;;0.90;;
78781;SDS011;68126;55.748;48.742;2023-06-04T19:05:15;2.02;;;0.80;;
78781;SDS011;68126;55.748;48.742;2023-06-04T19:10:40;4.20;;;1.15;;
78781;SDS011;68126;55.748;48.742;2023-06-04T19:16:09;4.95;;;0.90;;
78781;SDS011;68126;55.748;48.742;2023-06-04T19:21:34;2.27;;;1.15;;
78781;SDS011;68126;55.748;48.742;2023-06-04T19:26:59;2.27;;;1.17;;
78781;SDS011;68126;55.748;48.742;2023-06-04T19:32:23;2.55;;;1.05;;
78781;SDS011;68126;55.748;48.742;2023-06-04T19:37:50;3.00;;;0.72;;
78781;SDS011;68126;55.748;48.742;2023-06-04T19:43:15;3.45;;;1.15;;
78781;SDS011;68126;55.748;48.742;2023-06-04T19:48:42;3.12;;;1.15;;
78781;SDS011;68126;55.748;48.742;2023-06-04T19:54:07;9.78;;;5.80;;
78781;SDS011;68126;55.748;48.742;2023-06-04T19:59:32;5.45;;;2.17;;
78781;SDS011;68126;55.748;48.742;2023-06-04T20:04:57;3.85;;;2.12;;
78781;SDS011;68126;55.748;48.742;2023-06-04T20:15:52;3.08;;;2.50;;
78781;SDS011;68126;55.748;48.742;2023-06-04T20:21:17;6.33;;;4.37;;
78781;SDS011;68126;55.748;48.742;2023-06-04T20:26:41;6.47;;;2.25;;
78781;SDS011;68126;55.748;48.742;2023-06-04T20:32:06;4.53;;;2.05;;
78781;SDS011;68126;55.748;48.742;2023-06-04T20:37:31;4.50;;;2.60;;
78781;SDS011;68126;55.748;48.742;2023-06-04T20:42:57;3.20;;;1.77;;
78781;SDS011;68126;55.748;48.742;2023-06-04T20:48:56;6.83;;;2.20;;
78781;SDS011;68126;55.748;48.742;2023-06-04T20:53:52;3.87;;;3.10;;
78781;SDS011;68126;55.748;48.742;2023-06-04T20:59:18;3.98;;;1.65;;
78781;SDS011;68126;55.748;48.742;2023-06-04T21:04:43;4.80;;;3.80;;
78781;SDS011;68126;55.748;48.742;2023-06-04T21:10:09;4.10;;;1.80;;
78781;SDS011;68126;55.748;48.742;2023-06-04T21:15:54;2.50;;;1.57;;
78781;SDS011;68126;55.748;48.742;2023-06-04T21:21:19;5.15;;;1.62;;
78781;SDS011;68126;55.748;48.742;2023-06-04T21:26:44;9.23;;;3.55;;
78781;SDS011;68126;55.748;48.742;2023-06-04T21:32:08;3.33;;;2.08;;
78781;SDS011;68126;55.748;48.742;2023-06-04T21:37:33;10.25;;;4.35;;
78781;SDS011;68126;55.748;48.742;2023-06-04T21:42:58;4.90;;;2.85;;
78781;SDS011;68126;55.748;48.742;2023-06-04T21:48:23;3.85;;;1.67;;
78781;SDS011;68126;55.748;48.742;2023-06-04T21:53:47;3.90;;;1.37;;
78781;SDS011;68126;55.748;48.742;2023-06-04T21:59:21;4.08;;;1.15;;
78781;SDS011;68126;55.748;48.742;2023-06-04T22:04:46;2.60;;;1.80;;
78781;SDS011;68126;55.748;48.742;2023-06-04T22:10:10;3.25;;;1.07;;
78781;SDS011;68126;55.748;48.742;2023-06-04T22:15:35;2.37;;;1.10;;
78781;SDS011;68126;55.748;48.742;2023-06-04T22:21:01;4.15;;;1.42;;
78781;SDS011;68126;55.748;48.742;2023-06-04T22:26:26;4.30;;;1.17;;
78781;SDS011;68126;55.748;48.742;2023-06-04T22:31:50;5.42;;;1.12;;
78781;SDS011;68126;55.748;48.742;2023-06-04T22:37:15;3.17;;;2.05;;
78781;SDS011;68126;55.748;48.742;2023-06-04T22:42:40;5.17;;;1.30;;
78781;SDS011;68126;55.748;48.742;2023-06-04T22:48:05;6.25;;;1.20;;
78781;SDS011;68126;55.748;48.742;2023-06-04T22:53:30;3.42;;;1.42;;
78781;SDS011;68126;55.748;48.742;2023-06-04T22:58:55;3.20;;;1.32;;
78781;SDS011;68126;55.748;48.742;2023-06-04T23:04:19;3.90;;;1.45;;
78781;SDS011;68126;55.748;48.742;2023-06-04T23:09:44;2.72;;;1.35;;
78781;SDS011;68126;55.748;48.742;2023-06-04T23:15:16;3.55;;;2.15;;
78781;SDS011;68126;55.748;48.742;2023-06-04T23:20:35;3.67;;;3.12;;
78781;SDS011;68126;55.748;48.742;2023-06-04T23:26:00;5.65;;;1.65;;
78781;SDS011;68126;55.748;48.742;2023-06-04T23:31:25;5.35;;;2.22;;
78781;SDS011;68126;55.748;48.742;2023-06-04T23:36:50;3.77;;;1.85;;
78781;SDS011;68126;55.748;48.742;2023-06-04T23:42:14;10.80;;;2.75;;
78781;SDS011;68126;55.748;48.742;2023-06-04T23:47:39;5.90;;;1.98;;
78781;SDS011;68126;55.748;48.742;2023-06-04T23:53:04;4.42;;;2.50;;
78781;SDS011;68126;55.748;48.742;2023-06-04T23:58:29;3.30;;;1.75;;
